Time;durP1;ratioP1;P1;durP2;ratioP2;P2;SDS_P1;SDS_P2;PMS_P1;PMS_P2;Temp;Humidity;BMP_temperature;BMP_pressure;BME280_temperature;BME280_humidity;BME280_pressure;Samples;Min_cycle;Max_cycle;Signal;HPM_P1;HPM_P2
2020/12/13 00:00:39;;;;;;;13.98;5.03;;;7.00;99.90;;;;;;10470976;28;20039;-54
2020/12/13 00:06:00;;;;;;;12.00;3.83;;;6.90;99.90;;;;;;10490916;28;20047;-53
2020/12/13 00:11:21;;;;;;;12.07;4.78;;;6.90;99.90;;;;;;10489960;28;20051;-52
2020/12/13 00:16:42;;;;;;;12.80;4.63;;;6.90;99.90;;;;;;10493887;28;20036;-52
2020/12/13 00:22:03;;;;;;;17.08;3.97;;;6.90;99.90;;;;;;10486552;28;20043;-52
2020/12/13 00:27:24;;;;;;;14.38;3.80;;;7.00;99.90;;;;;;10488270;28;20044;-52
2020/12/13 00:32:45;;;;;;;16.90;5.07;;;7.00;99.90;;;;;;10494263;28;20028;-52
2020/12/13 00:38:06;;;;;;;13.38;5.20;;;7.00;99.90;;;;;;10492959;28;20041;-52
2020/12/13 00:43:27;;;;;;;17.92;4.93;;;7.00;99.90;;;;;;10489073;28;20699;-52
2020/12/13 00:48:50;;;;;;;13.18;4.25;;;7.00;99.90;;;;;;10479616;28;20071;-52
2020/12/13 00:54:11;;;;;;;15.93;5.32;;;7.00;99.90;;;;;;10496189;28;20039;-52
2020/12/13 00:59:32;;;;;;;18.23;5.63;;;7.00;99.90;;;;;;10494885;28;20042;-52
2020/12/13 01:04:53;;;;;;;10.63;4.20;;;7.00;99.90;;;;;;10489283;28;20064;-52
2020/12/13 01:10:14;;;;;;;13.13;4.03;;;7.00;99.90;;;;;;10494124;28;20032;-52
2020/12/13 01:15:35;;;;;;;11.32;3.72;;;7.10;99.90;;;;;;10487558;28;20032;-52
2020/12/13 01:20:56;;;;;;;9.35;4.30;;;7.10;99.90;;;;;;10470779;28;20055;-52
2020/12/13 01:26:18;;;;;;;16.80;4.55;;;7.10;99.90;;;;;;10489583;28;20041;-52
2020/12/13 01:31:39;;;;;;;7.57;3.15;;;7.00;99.90;;;;;;10491276;28;20034;-52
2020/12/13 01:37:01;;;;;;;15.77;5.20;;;7.00;99.90;;;;;;10483475;28;20124;-51
2020/12/13 01:42:21;;;;;;;6.25;2.90;;;7.10;99.90;;;;;;10483916;28;20041;-52
2020/12/13 01:47:42;;;;;;;10.27;2.92;;;7.00;99.90;;;;;;10487894;28;20032;-52
2020/12/13 01:53:14;;;;;;;8.60;2.53;;;7.10;99.90;;;;;;10490158;28;20040;-52
2020/12/13 01:58:38;;;;;;;13.13;3.70;;;7.10;99.90;;;;;;10486184;28;20036;-52
2020/12/13 02:04:01;;;;;;;7.68;3.15;;;7.10;99.90;;;;;;10491779;28;20040;-51
2020/12/13 02:09:23;;;;;;;10.00;2.95;;;7.10;99.90;;;;;;10490582;28;20040;-52
2020/12/13 02:14:44;;;;;;;13.75;3.90;;;7.10;99.90;;;;;;10492805;28;20436;-52
2020/12/13 02:20:10;;;;;;;12.52;5.15;;;7.10;99.90;;;;;;10490332;28;20480;-52
2020/12/13 02:25:31;;;;;;;12.70;4.72;;;7.20;99.90;;;;;;10489803;28;20056;-52
2020/12/13 02:30:52;;;;;;;7.32;3.45;;;7.20;99.90;;;;;;10494754;28;20047;-52
2020/12/13 02:36:13;;;;;;;9.45;3.72;;;7.20;99.90;;;;;;10484007;28;20044;-52
2020/12/13 02:41:34;;;;;;;12.32;4.25;;;7.20;99.90;;;;;;10485348;28;20051;-52
2020/12/13 02:46:55;;;;;;;13.88;5.20;;;7.10;99.90;;;;;;10480742;28;20041;-52
2020/12/13 02:52:18;;;;;;;11.88;3.70;;;7.10;99.90;;;;;;10483538;28;20040;-52
2020/12/13 02:57:40;;;;;;;12.55;4.35;;;7.10;99.90;;;;;;10487568;28;20043;-52
2020/12/13 03:03:01;;;;;;;10.38;3.88;;;7.10;99.90;;;;;;10489201;28;20032;-52
2020/12/13 03:08:22;;;;;;;10.02;4.28;;;7.10;99.90;;;;;;10491254;28;20112;-52
2020/12/13 03:13:43;;;;;;;9.98;4.03;;;7.10;99.90;;;;;;10491776;28;20098;-52
2020/12/13 03:19:04;;;;;;;10.63;3.53;;;7.10;99.90;;;;;;10483381;28;20161;-52
2020/12/13 03:24:25;;;;;;;15.70;5.43;;;7.10;99.90;;;;;;10482926;28;20059;-54
2020/12/13 03:29:46;;;;;;;9.95;3.38;;;7.10;99.90;;;;;;10482018;28;20049;-53
2020/12/13 03:35:07;;;;;;;8.30;3.38;;;7.10;99.90;;;;;;10472918;28;20123;-54
2020/12/13 03:40:28;;;;;;;11.85;4.47;;;7.10;99.90;;;;;;10481474;28;20068;-54
2020/12/13 03:45:49;;;;;;;9.18;3.97;;;7.20;99.90;;;;;;10477509;28;20479;-54
2020/12/13 03:51:09;;;;;;;10.13;4.28;;;7.30;99.90;;;;;;10484133;28;20031;-52
2020/12/13 03:56:30;;;;;;;8.55;3.92;;;7.40;99.90;;;;;;10487345;28;20050;-53
2020/12/13 04:01:51;;;;;;;11.48;4.07;;;7.40;99.90;;;;;;10490893;28;20047;-54
2020/12/13 04:07:12;;;;;;;16.35;3.58;;;7.40;99.90;;;;;;10486768;28;20064;-54
2020/12/13 04:12:33;;;;;;;15.02;5.32;;;7.40;99.90;;;;;;10481678;28;20607;-54
2020/12/13 04:17:54;;;;;;;14.20;3.78;;;7.50;99.90;;;;;;10481667;28;20048;-54
2020/12/13 04:23:15;;;;;;;11.80;4.18;;;7.50;99.90;;;;;;10487216;28;20082;-54
2020/12/13 04:28:36;;;;;;;7.47;3.15;;;7.50;99.90;;;;;;10482583;28;20345;-54
2020/12/13 04:33:57;;;;;;;14.27;3.67;;;7.50;99.90;;;;;;10483101;28;20036;-54
2020/12/13 04:39:18;;;;;;;10.52;3.60;;;7.40;99.90;;;;;;10488316;28;20029;-54
2020/12/13 04:44:40;;;;;;;15.27;3.47;;;7.40;99.90;;;;;;10491882;28;20036;-51
2020/12/13 04:50:04;;;;;;;12.95;3.20;;;7.40;99.90;;;;;;10489685;28;20512;-51
2020/12/13 04:55:25;;;;;;;12.27;2.88;;;7.40;99.90;;;;;;10486657;28;20044;-51
2020/12/13 05:00:59;;;;;;;7.43;2.83;;;7.40;99.90;;;;;;10496988;28;20063;-51
2020/12/13 05:06:22;;;;;;;8.73;3.05;;;7.40;99.90;;;;;;10488546;28;20130;-51
2020/12/13 05:11:46;;;;;;;12.73;3.47;;;7.40;99.90;;;;;;10491593;28;21150;-52
2020/12/13 05:17:09;;;;;;;10.90;3.40;;;7.40;99.90;;;;;;10482211;28;20040;-52
2020/12/13 05:22:37;;;;;;;8.27;3.22;;;7.40;99.90;;;;;;10484655;28;20094;-52
2020/12/13 05:28:01;;;;;;;15.63;4.38;;;7.40;99.90;;;;;;10483154;28;20040;-52
2020/12/13 05:33:30;;;;;;;10.73;3.40;;;7.40;99.90;;;;;;10494072;28;20426;-52
2020/12/13 05:38:56;;;;;;;10.85;3.85;;;7.40;99.90;;;;;;10492633;28;20655;-52
2020/12/13 05:50:26;;;;;;;12.65;4.85;;;7.50;99.90;;;;;;10485710;28;20408;-52
2020/12/13 05:55:48;;;;;;;12.70;3.40;;;7.50;99.90;;;;;;10487804;28;20056;-52
2020/12/13 06:01:09;;;;;;;11.80;3.30;;;7.50;99.90;;;;;;10487515;28;20131;-54
2020/12/13 06:06:30;;;;;;;9.38;3.22;;;7.50;99.90;;;;;;10474603;28;20702;-54
2020/12/13 06:11:51;;;;;;;10.35;3.22;;;7.60;99.90;;;;;;10486534;28;20039;-54
2020/12/13 06:17:12;;;;;;;8.27;3.25;;;7.60;99.90;;;;;;10486091;28;20028;-53
2020/12/13 06:22:34;;;;;;;8.70;2.22;;;7.50;99.90;;;;;;10476982;28;20052;-54
2020/12/13 06:27:55;;;;;;;10.02;2.63;;;7.50;99.90;;;;;;10491309;28;20048;-54
2020/12/13 06:33:19;;;;;;;10.38;3.28;;;7.60;99.90;;;;;;10493063;28;20036;-54
2020/12/13 06:38:41;;;;;;;6.53;3.40;;;7.60;99.90;;;;;;10491254;28;20036;-54
2020/12/13 06:44:05;;;;;;;9.75;2.92;;;7.60;99.90;;;;;;10490423;28;20123;-53
2020/12/13 06:49:26;;;;;;;7.60;3.13;;;7.60;99.90;;;;;;10490833;28;20040;-54
2020/12/13 06:54:49;;;;;;;7.72;1.95;;;7.60;99.90;;;;;;10480481;28;20041;-54
2020/12/13 07:00:10;;;;;;;6.85;2.92;;;7.60;99.90;;;;;;10488833;28;20043;-54
2020/12/13 07:05:56;;;;;;;5.53;2.40;;;7.60;99.90;;;;;;10486458;28;20059;-53
2020/12/13 07:11:18;;;;;;;7.03;2.65;;;7.60;99.90;;;;;;10483510;28;20096;-54
2020/12/13 07:16:44;;;;;;;6.68;3.05;;;7.60;99.90;;;;;;10487192;28;20090;-53
2020/12/13 07:22:06;;;;;;;7.80;2.60;;;7.70;99.90;;;;;;10489743;28;20028;-54
2020/12/13 07:27:27;;;;;;;10.07;2.85;;;7.70;99.90;;;;;;10490635;28;20132;-53
2020/12/13 07:32:48;;;;;;;9.68;3.22;;;7.70;99.90;;;;;;10484867;28;20383;-54
2020/12/13 07:38:09;;;;;;;8.77;2.97;;;7.80;99.90;;;;;;10479398;28;20488;-54
2020/12/13 07:43:30;;;;;;;10.35;3.17;;;7.80;99.90;;;;;;10470180;28;20600;-53
2020/12/13 07:49:10;;;;;;;14.10;4.15;;;7.80;99.90;;;;;;10483946;28;20044;-53
2020/12/13 07:54:32;;;;;;;14.32;2.58;;;7.80;99.90;;;;;;10482613;28;20032;-54
2020/12/13 07:59:53;;;;;;;7.50;3.10;;;7.80;99.90;;;;;;10435455;28;20040;-54
2020/12/13 08:05:18;;;;;;;7.30;3.13;;;7.70;99.90;;;;;;10481961;28;20048;-53
2020/12/13 08:10:39;;;;;;;6.80;2.42;;;7.60;99.90;;;;;;10483982;28;20037;-54
2020/12/13 08:16:04;;;;;;;14.48;3.67;;;7.60;99.90;;;;;;10482972;28;20059;-54
2020/12/13 08:21:39;;;;;;;8.55;2.38;;;7.70;99.90;;;;;;10465683;28;20100;-54
2020/12/13 08:27:01;;;;;;;4.97;1.95;;;7.70;99.90;;;;;;10474650;28;20143;-54
2020/12/13 08:32:23;;;;;;;8.85;2.28;;;7.60;99.90;;;;;;10481805;28;20345;-54
2020/12/13 08:37:54;;;;;;;8.38;2.55;;;7.70;99.90;;;;;;10497189;28;20232;-54
2020/12/13 08:43:19;;;;;;;6.57;2.67;;;7.70;99.90;;;;;;10498245;28;20084;-54
2020/12/13 08:48:40;;;;;;;7.28;2.13;;;7.70;99.90;;;;;;10498467;28;20032;-54
2020/12/13 08:54:03;;;;;;;8.48;2.42;;;7.70;99.90;;;;;;10502040;28;20534;-54
2020/12/13 08:59:24;;;;;;;10.18;2.70;;;7.70;99.90;;;;;;10499815;28;20173;-54
2020/12/13 09:04:54;;;;;;;8.73;2.50;;;7.70;99.90;;;;;;10501766;28;20565;-54
2020/12/13 09:10:15;;;;;;;6.82;2.42;;;7.70;99.90;;;;;;10486891;28;20189;-54
2020/12/13 09:15:36;;;;;;;5.10;1.63;;;7.70;99.90;;;;;;10501886;28;20051;-54
2020/12/13 09:20:57;;;;;;;7.07;2.58;;;7.80;99.90;;;;;;10505469;28;20032;-54
2020/12/13 09:26:24;;;;;;;8.43;1.83;;;7.80;99.90;;;;;;10517775;28;20101;-54
2020/12/13 09:31:45;;;;;;;3.88;1.73;;;7.90;99.90;;;;;;10510558;28;20032;-54
2020/12/13 09:37:19;;;;;;;7.72;2.80;;;8.00;99.90;;;;;;10499204;28;20116;-54
2020/12/13 09:42:40;;;;;;;10.07;3.85;;;8.00;99.90;;;;;;10500846;28;20043;-54
2020/12/13 09:48:01;;;;;;;6.55;2.80;;;8.10;99.90;;;;;;10495538;28;20135;-55
2020/12/13 09:53:22;;;;;;;6.25;3.10;;;8.20;99.90;;;;;;10494614;28;20077;-54
2020/12/13 09:58:47;;;;;;;5.40;1.42;;;8.40;99.90;;;;;;10502611;28;20235;-54
2020/12/13 10:04:08;;;;;;;5.07;1.70;;;8.60;99.90;;;;;;10501828;28;20049;-54
2020/12/13 10:09:29;;;;;;;8.60;2.03;;;8.60;99.90;;;;;;10493767;28;20046;-52
2020/12/13 10:14:50;;;;;;;9.88;2.42;;;8.60;99.90;;;;;;10464236;28;20495;-52
2020/12/13 10:20:11;;;;;;;3.95;1.90;;;8.50;99.90;;;;;;10432714;28;20975;-52
2020/12/13 10:25:32;;;;;;;5.47;1.50;;;8.30;99.90;;;;;;10437335;28;20497;-52
2020/12/13 10:30:53;;;;;;;7.00;3.00;;;8.60;99.90;;;;;;10439723;28;20025;-52
2020/12/13 10:36:14;;;;;;;4.45;2.28;;;8.40;99.90;;;;;;10435612;28;20073;-52
2020/12/13 10:41:36;;;;;;;7.72;3.03;;;8.50;99.90;;;;;;10441294;28;20068;-52
2020/12/13 10:46:57;;;;;;;7.43;2.97;;;8.70;99.90;;;;;;10439334;28;20045;-52
2020/12/13 10:52:17;;;;;;;4.38;2.47;;;9.00;99.90;;;;;;10437119;28;20040;-52
2020/12/13 10:57:38;;;;;;;3.90;2.00;;;9.30;99.90;;;;;;10437765;28;20033;-52
2020/12/13 11:02:59;;;;;;;3.70;1.92;;;9.70;99.90;;;;;;10436179;28;20063;-54
2020/12/13 11:08:22;;;;;;;5.40;1.95;;;10.40;99.90;;;;;;10423963;28;20374;-54
2020/12/13 11:13:43;;;;;;;5.18;2.28;;;9.90;99.90;;;;;;10435024;28;22188;-52
2020/12/13 11:19:05;;;;;;;10.70;2.85;;;9.60;99.90;;;;;;10439173;28;20041;-51
2020/12/13 11:24:26;;;;;;;3.30;1.45;;;8.90;99.90;;;;;;10431542;28;20127;-51
2020/12/13 11:29:47;;;;;;;3.42;1.75;;;8.70;99.90;;;;;;10440044;28;20056;-52
2020/12/13 11:35:09;;;;;;;4.78;1.60;;;9.40;99.90;;;;;;10436228;28;20037;-52
2020/12/13 11:40:30;;;;;;;2.67;1.25;;;9.90;99.90;;;;;;10438477;28;20037;-51
2020/12/13 11:45:51;;;;;;;7.22;1.83;;;9.10;99.90;;;;;;10440088;28;20043;-51
2020/12/13 11:51:12;;;;;;;7.93;1.77;;;8.60;99.90;;;;;;10424406;28;20052;-51
2020/12/13 11:56:33;;;;;;;3.58;1.42;;;8.50;99.90;;;;;;10432102;28;20130;-51
2020/12/13 12:01:54;;;;;;;4.15;1.50;;;8.40;99.90;;;;;;10426888;28;20094;-51
2020/12/13 12:07:15;;;;;;;2.90;1.58;;;8.40;99.90;;;;;;10428449;28;20060;-53
2020/12/13 12:12:36;;;;;;;4.00;1.73;;;8.10;99.90;;;;;;10433130;28;20409;-54
2020/12/13 12:17:57;;;;;;;4.57;1.58;;;8.20;99.90;;;;;;10441878;28;20080;-54
2020/12/13 12:23:18;;;;;;;13.18;1.52;;;8.20;99.90;;;;;;10436417;28;20528;-51
2020/12/13 12:28:39;;;;;;;5.22;1.40;;;8.10;99.90;;;;;;10445361;28;20396;-53
2020/12/13 12:34:00;;;;;;;2.45;1.17;;;8.20;99.90;;;;;;10436173;28;20044;-54
2020/12/13 12:39:21;;;;;;;3.67;1.40;;;8.20;99.90;;;;;;10435527;28;20502;-54
2020/12/13 12:44:45;;;;;;;6.35;1.02;;;8.20;99.90;;;;;;10438784;28;20055;-54
2020/12/13 12:50:06;;;;;;;3.20;1.08;;;8.30;99.90;;;;;;10444941;28;20040;-54
2020/12/13 12:55:27;;;;;;;2.25;1.00;;;8.50;99.90;;;;;;10436917;28;20144;-54
2020/12/13 13:00:53;;;;;;;4.75;1.10;;;8.80;99.90;;;;;;10439858;28;20037;-52
2020/12/13 13:12:03;;;;;;;4.53;1.00;;;8.70;99.90;;;;;;10437480;28;20032;-52
2020/12/13 13:17:27;;;;;;;1.75;0.65;;;8.80;99.90;;;;;;10439927;28;20051;-51
2020/12/13 13:22:51;;;;;;;5.63;1.52;;;8.80;99.90;;;;;;10438237;28;20480;-52
2020/12/13 13:28:12;;;;;;;1.33;0.70;;;8.50;99.90;;;;;;10438509;28;20665;-51
2020/12/13 13:33:33;;;;;;;4.38;2.03;;;8.40;99.90;;;;;;10435987;28;20091;-53
2020/12/13 13:38:54;;;;;;;3.25;1.55;;;8.30;99.90;;;;;;10429489;28;20132;-54
2020/12/13 13:44:22;;;;;;;3.80;1.08;;;8.20;99.90;;;;;;10438123;28;20040;-54
2020/12/13 13:50:00;;;;;;;4.88;0.77;;;8.10;99.90;;;;;;10438673;28;20072;-54
2020/12/13 13:55:29;;;;;;;3.38;0.80;;;8.10;99.90;;;;;;10440522;28;20521;-54
2020/12/13 14:00:50;;;;;;;2.15;0.80;;;8.10;99.90;;;;;;10441201;28;20048;-53
2020/12/13 14:06:19;;;;;;;2.22;1.10;;;7.90;99.90;;;;;;10439202;28;20047;-54
2020/12/13 14:11:40;;;;;;;4.38;0.80;;;8.00;99.90;;;;;;10435350;28;20036;-53
2020/12/13 14:17:01;;;;;;;3.45;1.40;;;8.00;99.90;;;;;;10437614;28;20091;-53
2020/12/13 14:22:22;;;;;;;1.30;0.70;;;7.90;99.90;;;;;;10443056;28;20032;-53
2020/12/13 14:27:43;;;;;;;1.65;0.60;;;7.90;99.90;;;;;;10445639;28;20408;-53
2020/12/13 14:33:04;;;;;;;2.42;1.25;;;7.90;99.90;;;;;;10438297;28;20043;-53
2020/12/13 14:38:25;;;;;;;3.47;1.15;;;7.80;99.90;;;;;;10435811;28;20043;-53
2020/12/13 14:43:46;;;;;;;3.55;0.93;;;7.80;99.90;;;;;;10436036;28;20671;-53
2020/12/13 14:49:07;;;;;;;5.88;0.77;;;7.80;99.90;;;;;;10442266;28;20044;-53
2020/12/13 14:54:28;;;;;;;1.98;0.80;;;7.80;99.90;;;;;;10438794;28;20068;-53
2020/12/13 14:59:49;;;;;;;4.93;1.20;;;7.80;99.90;;;;;;10440454;28;20043;-53
2020/12/13 15:05:10;;;;;;;3.47;1.15;;;7.80;99.90;;;;;;10433155;28;20128;-53
2020/12/13 15:10:34;;;;;;;3.17;0.80;;;7.80;99.90;;;;;;10437837;28;20119;-54
2020/12/13 15:16:08;;;;;;;5.32;1.05;;;7.80;99.90;;;;;;10417578;28;20028;-53
2020/12/13 15:21:29;;;;;;;3.40;1.63;;;7.80;99.90;;;;;;10431605;28;20032;-53
2020/12/13 15:26:51;;;;;;;2.17;0.70;;;7.70;99.90;;;;;;10434345;28;20045;-53
2020/12/13 15:32:12;;;;;;;3.85;0.70;;;7.70;99.90;;;;;;10435100;28;20036;-53
2020/12/13 15:37:33;;;;;;;1.45;0.60;;;7.70;99.90;;;;;;10436048;28;20684;-54
2020/12/13 15:42:54;;;;;;;3.80;1.60;;;7.60;99.90;;;;;;10440386;28;20106;-53
2020/12/13 15:48:15;;;;;;;4.90;1.50;;;7.60;99.90;;;;;;10442081;28;20042;-54
2020/12/13 15:53:42;;;;;;;7.95;0.90;;;7.60;99.90;;;;;;10446701;28;20546;-53
2020/12/13 15:59:04;;;;;;;3.45;1.20;;;7.60;99.90;;;;;;10448383;28;20040;-54
2020/12/13 16:04:27;;;;;;;2.58;1.27;;;7.60;99.90;;;;;;10438212;28;20044;-54
2020/12/13 16:09:48;;;;;;;4.40;1.38;;;7.60;99.90;;;;;;10446022;28;20106;-53
2020/12/13 16:15:09;;;;;;;1.65;0.82;;;7.60;99.90;;;;;;10446103;28;20386;-53
2020/12/13 16:20:30;;;;;;;2.05;1.02;;;7.60;99.90;;;;;;10449576;28;20043;-53
2020/12/13 16:25:54;;;;;;;2.40;0.57;;;7.50;99.90;;;;;;10443105;28;21633;-53
2020/12/13 16:31:15;;;;;;;12.88;1.77;;;7.60;99.90;;;;;;10444560;28;20040;-53
2020/12/13 16:36:38;;;;;;;2.63;1.10;;;7.60;99.90;;;;;;10442816;28;20051;-53
2020/12/13 16:42:05;;;;;;;3.80;1.75;;;7.60;99.90;;;;;;10447244;28;20195;-53
2020/12/13 16:47:28;;;;;;;2.45;1.08;;;7.50;99.90;;;;;;10441831;28;20087;-53
2020/12/13 16:58:29;;;;;;;6.00;0.88;;;7.60;99.90;;;;;;10435560;28;20088;-53
2020/12/13 17:03:50;;;;;;;3.03;1.33;;;7.60;99.90;;;;;;10438655;28;20135;-53
2020/12/13 17:09:11;;;;;;;10.52;1.30;;;7.50;99.90;;;;;;10445223;28;20045;-53
2020/12/13 17:14:33;;;;;;;3.13;1.08;;;7.50;99.90;;;;;;10445815;28;20041;-53
2020/12/13 17:19:54;;;;;;;3.67;1.10;;;7.50;99.90;;;;;;10446726;28;20128;-53
2020/12/13 17:25:14;;;;;;;3.47;1.95;;;7.50;99.90;;;;;;10439772;28;20057;-53
2020/12/13 17:30:35;;;;;;;4.93;1.55;;;7.50;99.90;;;;;;10443633;28;20058;-53
2020/12/13 17:35:56;;;;;;;5.95;1.65;;;7.40;99.90;;;;;;10446147;28;20067;-54
2020/12/13 17:41:17;;;;;;;2.92;1.55;;;7.40;99.90;;;;;;10438622;28;20032;-53
2020/12/13 17:46:40;;;;;;;1.73;0.50;;;7.50;99.90;;;;;;10441799;28;20077;-53
2020/12/13 17:57:40;;;;;;;10.40;1.30;;;7.40;99.90;;;;;;10436218;28;20132;-54
2020/12/13 18:03:02;;;;;;;2.63;0.90;;;7.40;99.90;;;;;;10438637;28;20093;-53
2020/12/13 18:08:24;;;;;;;3.72;1.00;;;7.40;99.90;;;;;;10427589;28;20593;-53
2020/12/13 18:13:46;;;;;;;1.55;0.68;;;7.40;99.90;;;;;;10439791;28;20045;-51
2020/12/13 18:19:07;;;;;;;2.13;0.77;;;7.30;99.90;;;;;;10437614;28;20082;-51
2020/12/13 18:24:28;;;;;;;1.92;0.70;;;7.30;99.90;;;;;;10437704;28;20048;-53
2020/12/13 18:29:49;;;;;;;1.85;0.75;;;7.30;99.90;;;;;;10444646;28;20135;-53
2020/12/13 18:35:10;;;;;;;2.72;1.35;;;7.30;99.90;;;;;;10439114;28;20040;-54
2020/12/13 18:40:31;;;;;;;10.40;2.55;;;7.20;99.90;;;;;;10434251;28;20037;-53
2020/12/13 18:45:52;;;;;;;3.13;1.10;;;7.20;99.90;;;;;;10436009;28;20630;-53
2020/12/13 18:51:17;;;;;;;3.17;1.42;;;7.20;99.90;;;;;;10438647;28;20106;-51
2020/12/13 18:56:39;;;;;;;2.50;1.45;;;7.10;99.90;;;;;;10431404;28;20033;-51
2020/12/13 19:02:03;;;;;;;3.42;1.00;;;7.00;99.90;;;;;;10438407;28;20043;-51
2020/12/13 19:07:25;;;;;;;4.70;1.55;;;7.10;99.90;;;;;;10433067;28;20059;-51
2020/12/13 19:12:46;;;;;;;2.88;1.92;;;7.00;99.90;;;;;;10430826;28;20056;-51
2020/12/13 19:18:07;;;;;;;3.85;1.05;;;7.00;99.90;;;;;;10435096;28;20033;-51
2020/12/13 19:23:28;;;;;;;3.25;1.42;;;7.10;99.90;;;;;;10439307;28;20047;-52
2020/12/13 19:28:49;;;;;;;4.25;1.45;;;7.10;99.90;;;;;;10430803;28;20040;-53
2020/12/13 19:34:10;;;;;;;5.68;1.23;;;7.00;99.90;;;;;;10431453;28;20044;-53
2020/12/13 19:39:31;;;;;;;2.35;1.00;;;7.00;99.90;;;;;;10438437;28;20116;-53
2020/12/13 19:44:52;;;;;;;4.15;1.30;;;6.90;99.90;;;;;;10440216;28;20040;-51
2020/12/13 19:50:14;;;;;;;4.50;1.50;;;6.90;99.90;;;;;;10438735;28;20041;-51
2020/12/13 19:55:40;;;;;;;2.50;0.80;;;6.70;99.90;;;;;;10436888;28;20527;-51
2020/12/13 20:01:02;;;;;;;3.15;1.38;;;6.60;99.90;;;;;;10434587;28;20044;-51
2020/12/13 20:06:24;;;;;;;1.23;0.52;;;6.50;99.90;;;;;;10422397;28;20071;-51
2020/12/13 20:11:45;;;;;;;8.77;2.47;;;6.40;99.90;;;;;;10431558;28;20041;-51
2020/12/13 20:57:15;;;;;;;3.35;0.85;;;6.20;99.90;;;;;;10444542;28;20041;-51
2020/12/13 21:18:08;;;;;;;1.42;0.45;;;6.40;99.90;;;;;;10450089;28;20040;-51
2020/12/13 21:23:37;;;;;;;2.67;0.47;;;6.40;99.90;;;;;;10441526;28;20473;-52
2020/12/13 21:45:19;;;;;;;1.13;0.45;;;6.60;99.90;;;;;;10447887;28;20037;-54
2020/12/13 22:02:37;;;;;;;1.10;0.70;;;6.60;99.90;;;;;;10426135;28;20044;-54
2020/12/13 22:08:18;;;;;;;4.28;0.73;;;6.50;99.90;;;;;;10442835;28;20540;-54
2020/12/13 22:25:10;;;;;;;3.47;0.68;;;6.50;99.90;;;;;;10438058;28;20049;-54
2020/12/13 22:30:32;;;;;;;1.27;0.52;;;6.60;99.90;;;;;;10453861;28;20090;-54
2020/12/13 22:35:53;;;;;;;4.57;1.60;;;6.70;99.90;;;;;;10456778;28;20048;-54
2020/12/13 22:41:14;;;;;;;2.22;0.45;;;6.70;99.90;;;;;;10438451;28;20041;-54
2020/12/13 22:46:35;;;;;;;0.82;0.38;;;6.80;99.90;;;;;;10440967;28;20064;-54
2020/12/13 22:51:56;;;;;;;0.82;0.30;;;6.80;99.90;;;;;;10439318;28;20174;-54
2020/12/13 22:57:17;;;;;;;3.15;1.98;;;6.90;99.90;;;;;;10443236;28;20044;-54
2020/12/13 23:02:39;;;;;;;1.95;0.57;;;6.90;99.90;;;;;;10445294;28;20048;-55
2020/12/13 23:08:00;;;;;;;1.15;0.38;;;6.90;99.90;;;;;;10439023;28;20135;-54
2020/12/13 23:13:21;;;;;;;1.88;0.60;;;7.00;99.90;;;;;;10418819;28;20037;-54
2020/12/13 23:18:42;;;;;;;2.10;0.60;;;7.00;99.90;;;;;;10437817;28;20040;-54
2020/12/13 23:24:03;;;;;;;2.15;0.60;;;7.00;99.90;;;;;;10436876;28;20041;-54
2020/12/13 23:29:24;;;;;;;0.73;0.50;;;7.10;99.90;;;;;;10435388;28;20061;-54
2020/12/13 23:34:47;;;;;;;3.17;0.55;;;7.10;99.90;;;;;;10445288;28;20548;-54
2020/12/13 23:40:10;;;;;;;2.53;0.25;;;7.10;99.90;;;;;;10441232;28;20080;-54
2020/12/13 23:45:30;;;;;;;1.80;0.38;;;7.10;99.90;;;;;;10437672;28;20037;-54
2020/12/13 23:50:51;;;;;;;1.63;0.55;;;7.20;99.90;;;;;;10439956;28;20056;-54
2020/12/13 23:56:12;;;;;;;2.40;0.85;;;7.20;99.90;;;;;;10442491;28;20047;-54
